Time;durP1;ratioP1;P1;durP2;ratioP2;P2;SDS_P1;SDS_P2;PMS_P1;PMS_P2;Temp;Humidity;BMP_temperature;BMP_pressure;BME280_temperature;BME280_humidity;BME280_pressure;Samples;Min_cycle;Max_cycle;Signal;HPM_P1;HPM_P2
2021/06/06 00:00:28;;;;;;;23.70;18.17;;;16.20;99.90;;;;;;5111720;28;20452;-67
2021/06/06 00:02:57;;;;;;;21.97;18.70;;;16.20;99.90;;;;;;5111753;28;20532;-67
2021/06/06 00:05:28;;;;;;;21.73;16.90;;;16.20;99.90;;;;;;5112176;28;20566;-67
2021/06/06 00:07:54;;;;;;;22.50;17.80;;;16.20;99.90;;;;;;5112141;28;20441;-66
2021/06/06 00:10:21;;;;;;;20.13;16.60;;;16.20;99.90;;;;;;5111477;28;21021;-66
2021/06/06 00:12:47;;;;;;;19.73;16.90;;;16.20;99.90;;;;;;5111461;28;20445;-68
2021/06/06 00:15:16;;;;;;;19.07;16.17;;;16.20;99.90;;;;;;5111778;28;20575;-66
2021/06/06 00:17:43;;;;;;;21.20;16.33;;;16.20;99.90;;;;;;5112223;28;20449;-67
2021/06/06 00:20:12;;;;;;;24.67;17.30;;;16.20;99.90;;;;;;5113257;28;20490;-67
2021/06/06 00:22:39;;;;;;;19.97;16.77;;;16.20;99.90;;;;;;5111911;28;20453;-67
2021/06/06 00:25:08;;;;;;;17.27;14.60;;;16.10;99.90;;;;;;5111248;28;20967;-66
2021/06/06 00:27:34;;;;;;;18.43;16.07;;;16.20;99.90;;;;;;5111675;28;20548;-67
2021/06/06 00:30:00;;;;;;;24.43;18.90;;;16.20;99.90;;;;;;5111383;28;20550;-66
2021/06/06 00:32:27;;;;;;;19.37;16.53;;;16.10;99.90;;;;;;5111888;28;20450;-67
2021/06/06 00:34:53;;;;;;;18.47;16.00;;;16.10;99.90;;;;;;5111669;28;20913;-66
2021/06/06 00:37:21;;;;;;;19.70;15.77;;;16.10;99.90;;;;;;5111368;28;20480;-67
2021/06/06 00:39:48;;;;;;;24.67;16.00;;;16.10;99.90;;;;;;5111176;28;20448;-67
2021/06/06 00:42:18;;;;;;;21.37;16.27;;;16.10;99.90;;;;;;5111472;28;20448;-67
2021/06/06 00:44:44;;;;;;;20.40;16.87;;;16.10;99.90;;;;;;5111548;28;20471;-67
2021/06/06 00:47:10;;;;;;;20.30;14.90;;;16.10;99.90;;;;;;5111856;28;20520;-66
2021/06/06 00:49:37;;;;;;;19.00;15.70;;;16.10;99.90;;;;;;5111421;28;20445;-67
2021/06/06 00:52:04;;;;;;;19.77;16.10;;;16.10;99.90;;;;;;5111406;28;20449;-67
2021/06/06 00:54:34;;;;;;;19.80;15.93;;;16.10;99.90;;;;;;5111311;28;20573;-67
2021/06/06 00:57:10;;;;;;;18.07;16.17;;;16.10;99.90;;;;;;5111643;28;20528;-67
2021/06/06 00:59:38;;;;;;;18.53;16.53;;;16.10;99.90;;;;;;5111591;28;20449;-67
2021/06/06 01:02:07;;;;;;;18.13;14.50;;;16.10;99.90;;;;;;5111654;28;20520;-65
2021/06/06 01:04:34;;;;;;;16.57;14.80;;;16.10;99.90;;;;;;5111755;28;20471;-65
2021/06/06 01:07:01;;;;;;;20.87;14.53;;;16.10;99.90;;;;;;5111427;28;20475;-66
2021/06/06 01:09:28;;;;;;;19.13;15.33;;;16.10;99.90;;;;;;5111307;28;20449;-66
2021/06/06 01:12:02;;;;;;;16.63;14.50;;;16.10;99.90;;;;;;5111789;28;20528;-67
2021/06/06 01:14:34;;;;;;;19.77;13.87;;;16.10;99.90;;;;;;5110378;28;20503;-68
2021/06/06 01:17:04;;;;;;;15.17;13.37;;;16.10;99.90;;;;;;5110833;28;20477;-67
2021/06/06 01:19:41;;;;;;;16.93;13.50;;;16.10;99.90;;;;;;5110203;28;20442;-67
2021/06/06 01:22:19;;;;;;;16.63;14.40;;;16.00;99.90;;;;;;5110792;28;20531;-67
2021/06/06 01:24:48;;;;;;;16.37;12.80;;;16.00;99.90;;;;;;5110610;28;20457;-67
2021/06/06 01:27:18;;;;;;;17.60;13.77;;;16.10;99.90;;;;;;5110610;28;20653;-66
2021/06/06 01:29:49;;;;;;;15.17;12.83;;;16.00;99.90;;;;;;5110190;28;20441;-66
2021/06/06 01:32:20;;;;;;;14.23;12.27;;;16.00;99.90;;;;;;5110778;28;20452;-67
2021/06/06 01:34:54;;;;;;;15.07;13.20;;;16.00;99.90;;;;;;5110400;28;20910;-67
2021/06/06 01:37:21;;;;;;;14.30;11.17;;;16.00;99.90;;;;;;5110519;28;21041;-66
2021/06/06 01:39:56;;;;;;;16.40;12.30;;;16.00;99.90;;;;;;5110277;28;20450;-65
2021/06/06 01:42:27;;;;;;;14.70;11.80;;;16.00;99.90;;;;;;5110469;28;20452;-66
2021/06/06 01:44:58;;;;;;;14.97;12.80;;;16.00;99.90;;;;;;5110633;28;20981;-65
2021/06/06 01:47:27;;;;;;;12.97;10.80;;;16.00;99.90;;;;;;5110467;28;20441;-66
2021/06/06 01:49:57;;;;;;;12.50;10.83;;;15.90;99.90;;;;;;5109924;28;20950;-66
2021/06/06 01:52:27;;;;;;;12.97;11.60;;;15.90;99.90;;;;;;5110382;28;20447;-66
2021/06/06 01:54:55;;;;;;;13.30;11.73;;;15.90;99.90;;;;;;5110115;28;20477;-66
2021/06/06 01:57:25;;;;;;;13.87;11.53;;;15.90;99.90;;;;;;5110542;28;20449;-66
2021/06/06 01:59:54;;;;;;;14.37;11.97;;;15.90;99.90;;;;;;5109995;28;20465;-67
2021/06/06 02:02:21;;;;;;;14.30;11.10;;;15.80;99.90;;;;;;5110234;28;20528;-66
2021/06/06 02:04:47;;;;;;;14.10;11.87;;;15.80;99.90;;;;;;5109887;28;20493;-66
2021/06/06 02:07:17;;;;;;;14.20;11.80;;;15.80;99.90;;;;;;5109925;28;20462;-66
2021/06/06 02:09:48;;;;;;;15.23;13.50;;;15.80;99.90;;;;;;5110024;28;20535;-66
2021/06/06 02:12:16;;;;;;;12.73;11.33;;;15.70;99.90;;;;;;5110304;28;20441;-66
2021/06/06 02:14:45;;;;;;;14.20;11.73;;;15.70;99.90;;;;;;5110168;28;20498;-66
2021/06/06 02:17:19;;;;;;;14.10;11.43;;;15.80;99.90;;;;;;5110183;28;20455;-66
2021/06/06 02:19:47;;;;;;;21.23;11.00;;;15.70;99.90;;;;;;5109804;28;21141;-66
2021/06/06 02:22:16;;;;;;;13.07;11.67;;;15.80;99.90;;;;;;5110592;28;20468;-66
2021/06/06 02:24:43;;;;;;;12.33;11.03;;;15.70;99.90;;;;;;5110221;28;21006;-66
2021/06/06 02:27:18;;;;;;;13.37;11.20;;;15.70;99.90;;;;;;5113526;28;20532;-66
2021/06/06 02:29:52;;;;;;;13.67;12.23;;;15.70;99.90;;;;;;5114294;28;20440;-65
2021/06/06 02:32:30;;;;;;;14.03;10.10;;;15.70;99.90;;;;;;5113908;28;20535;-66
2021/06/06 02:35:02;;;;;;;11.80;10.00;;;15.70;99.90;;;;;;5114267;28;20484;-66
2021/06/06 02:37:31;;;;;;;11.87;10.60;;;15.70;99.90;;;;;;5114196;28;20517;-65
2021/06/06 02:40:01;;;;;;;12.30;10.40;;;15.70;99.90;;;;;;5113800;28;20536;-66
2021/06/06 02:42:32;;;;;;;14.40;10.60;;;15.70;99.90;;;;;;5113628;28;20527;-66
2021/06/06 02:45:06;;;;;;;11.40;9.70;;;15.70;99.90;;;;;;5113959;28;20901;-66
2021/06/06 02:47:35;;;;;;;12.90;11.30;;;15.60;99.90;;;;;;5113518;28;20545;-65
2021/06/06 02:50:06;;;;;;;13.40;10.40;;;15.70;99.90;;;;;;5113277;28;20836;-66
2021/06/06 02:52:39;;;;;;;12.53;10.47;;;15.60;99.90;;;;;;5113325;28;21109;-66
2021/06/06 02:55:10;;;;;;;12.20;10.70;;;15.60;99.90;;;;;;5113365;28;20565;-66
2021/06/06 02:57:42;;;;;;;12.00;10.30;;;15.60;99.90;;;;;;5113784;28;20619;-65
2021/06/06 03:00:14;;;;;;;15.70;12.33;;;15.60;99.90;;;;;;5113602;28;20873;-65
2021/06/06 03:02:43;;;;;;;14.70;12.10;;;15.50;99.90;;;;;;5113686;28;20437;-65
2021/06/06 03:05:18;;;;;;;17.63;12.03;;;15.50;99.90;;;;;;5113290;28;20528;-65
2021/06/06 03:07:49;;;;;;;17.00;12.80;;;15.50;99.90;;;;;;5113199;28;20440;-66
2021/06/06 03:10:17;;;;;;;14.57;12.30;;;15.50;99.90;;;;;;5113066;28;20811;-66
2021/06/06 03:12:47;;;;;;;14.43;12.00;;;15.50;99.90;;;;;;5113250;28;20437;-66
2021/06/06 03:15:16;;;;;;;14.83;12.30;;;15.40;99.90;;;;;;5113120;28;20481;-65
2021/06/06 03:17:45;;;;;;;15.73;11.87;;;15.50;99.90;;;;;;5113124;28;20441;-66
2021/06/06 03:20:15;;;;;;;16.17;11.60;;;15.50;99.90;;;;;;5112470;28;20441;-66
2021/06/06 03:22:45;;;;;;;16.30;12.90;;;15.40;99.90;;;;;;5112769;28;20532;-65
2021/06/06 03:25:18;;;;;;;18.47;13.40;;;15.40;99.90;;;;;;5112847;28;20442;-65
2021/06/06 03:27:47;;;;;;;14.83;12.30;;;15.40;99.90;;;;;;5112821;28;20806;-65
2021/06/06 03:30:29;;;;;;;14.53;11.50;;;15.40;99.90;;;;;;5112390;28;20441;-68
2021/06/06 03:32:56;;;;;;;13.10;10.77;;;15.40;99.90;;;;;;5113090;28;20884;-65
2021/06/06 03:35:23;;;;;;;14.53;11.07;;;15.40;99.90;;;;;;5112374;28;20489;-65
2021/06/06 03:37:49;;;;;;;11.37;10.17;;;15.40;99.90;;;;;;5111961;28;20449;-65
2021/06/06 03:40:17;;;;;;;11.03;8.80;;;15.30;99.90;;;;;;5112193;28;20927;-69
2021/06/06 03:42:43;;;;;;;12.37;11.07;;;15.30;99.90;;;;;;5112536;28;20445;-65
2021/06/06 03:45:13;;;;;;;13.13;10.47;;;15.30;99.90;;;;;;5112203;28;20453;-65
2021/06/06 03:47:40;;;;;;;11.60;10.13;;;15.30;99.90;;;;;;5112405;28;20441;-65
2021/06/06 03:50:10;;;;;;;12.70;9.00;;;15.30;99.90;;;;;;5111934;28;20503;-66
2021/06/06 03:52:36;;;;;;;10.53;8.10;;;15.30;99.90;;;;;;5112638;28;20445;-65
2021/06/06 03:55:04;;;;;;;9.63;7.70;;;15.30;99.90;;;;;;5112184;28;21189;-65
2021/06/06 03:57:32;;;;;;;7.90;6.87;;;15.30;99.90;;;;;;5112228;28;21149;-65
2021/06/06 03:59:58;;;;;;;8.50;6.80;;;15.30;99.90;;;;;;5111982;28;20540;-65
2021/06/06 04:02:26;;;;;;;8.77;7.60;;;15.20;99.90;;;;;;5112286;28;20477;-65
2021/06/06 04:04:52;;;;;;;7.70;6.03;;;15.30;99.90;;;;;;5112176;28;20460;-65
2021/06/06 04:07:19;;;;;;;10.10;6.00;;;15.30;99.90;;;;;;5111798;28;20969;-65
2021/06/06 04:09:45;;;;;;;9.10;6.10;;;15.20;99.90;;;;;;5111721;28;20520;-66
2021/06/06 04:12:12;;;;;;;10.47;5.60;;;15.20;99.90;;;;;;5111919;28;20444;-66
2021/06/06 04:14:38;;;;;;;9.60;5.97;;;15.30;99.90;;;;;;5111959;28;20584;-66
2021/06/06 04:17:05;;;;;;;6.97;5.27;;;15.30;99.90;;;;;;5111953;28;20437;-66
2021/06/06 04:19:33;;;;;;;7.53;5.00;;;15.30;99.90;;;;;;5111736;28;20456;-67
2021/06/06 04:21:59;;;;;;;7.90;5.50;;;15.20;99.90;;;;;;5111720;28;20540;-66
2021/06/06 04:24:25;;;;;;;7.40;4.70;;;15.30;99.90;;;;;;5111617;28;20541;-66
2021/06/06 04:26:51;;;;;;;5.73;5.00;;;15.30;99.90;;;;;;5111395;28;20524;-66
2021/06/06 04:29:18;;;;;;;8.10;5.00;;;15.20;99.90;;;;;;5111182;28;20896;-66
2021/06/06 04:31:45;;;;;;;6.07;5.27;;;15.10;99.90;;;;;;5111675;28;20459;-66
2021/06/06 04:34:11;;;;;;;8.27;5.60;;;15.10;99.90;;;;;;5111331;28;21016;-66
2021/06/06 04:36:39;;;;;;;7.03;5.00;;;15.00;99.90;;;;;;5111573;28;21143;-67
2021/06/06 04:39:06;;;;;;;7.13;5.37;;;15.00;99.90;;;;;;5112151;28;20528;-68
2021/06/06 04:41:32;;;;;;;10.20;6.30;;;15.00;99.90;;;;;;5112449;28;20472;-66
2021/06/06 04:43:58;;;;;;;7.80;6.97;;;15.00;99.90;;;;;;5112235;28;20942;-66
2021/06/06 04:46:25;;;;;;;8.00;5.50;;;15.00;99.90;;;;;;5112714;28;20444;-67
2021/06/06 04:48:51;;;;;;;7.80;5.53;;;15.00;99.90;;;;;;5110544;28;20453;-67
2021/06/06 04:51:20;;;;;;;9.33;6.13;;;15.00;99.90;;;;;;5110667;28;21084;-66
2021/06/06 04:53:49;;;;;;;10.37;5.83;;;15.00;99.90;;;;;;5111401;28;20540;-67
2021/06/06 04:56:17;;;;;;;6.87;5.10;;;15.00;99.90;;;;;;5111500;28;20485;-66
2021/06/06 04:58:44;;;;;;;10.10;6.17;;;15.00;99.90;;;;;;5111111;28;20445;-66
2021/06/06 05:01:11;;;;;;;9.93;6.50;;;15.00;99.90;;;;;;5110574;28;20975;-66
2021/06/06 05:03:38;;;;;;;8.87;6.10;;;15.00;99.90;;;;;;5110708;28;20669;-66
2021/06/06 05:06:04;;;;;;;9.10;5.80;;;15.00;99.90;;;;;;5110780;28;20942;-66
2021/06/06 05:08:31;;;;;;;7.70;5.60;;;15.00;99.90;;;;;;5111095;28;20449;-66
2021/06/06 05:10:59;;;;;;;7.37;5.70;;;15.00;99.90;;;;;;5111249;28;20441;-67
2021/06/06 05:13:26;;;;;;;8.47;6.00;;;15.00;99.90;;;;;;5110643;28;20465;-67
2021/06/06 05:15:54;;;;;;;9.30;6.10;;;15.00;99.90;;;;;;5110527;28;21029;-67
2021/06/06 05:18:22;;;;;;;7.30;5.90;;;15.10;99.90;;;;;;5110514;28;20437;-67
2021/06/06 05:20:50;;;;;;;8.93;7.43;;;15.00;99.90;;;;;;5110019;28;20453;-66
2021/06/06 05:23:18;;;;;;;9.97;6.93;;;15.10;99.90;;;;;;5110515;28;20468;-66
2021/06/06 05:25:45;;;;;;;10.23;7.33;;;15.10;99.90;;;;;;5110421;28;20438;-67
2021/06/06 05:28:15;;;;;;;14.17;8.37;;;15.10;99.90;;;;;;5110530;28;20532;-67
2021/06/06 05:30:43;;;;;;;9.37;7.50;;;15.10;99.90;;;;;;5109879;28;20529;-66
2021/06/06 05:33:10;;;;;;;10.10;7.50;;;15.10;99.90;;;;;;5110258;28;20461;-65
2021/06/06 05:35:37;;;;;;;11.23;8.03;;;15.20;99.90;;;;;;5109955;28;20559;-66
2021/06/06 05:38:06;;;;;;;11.90;8.13;;;15.20;99.90;;;;;;5110487;28;20445;-65
2021/06/06 05:40:33;;;;;;;15.17;9.40;;;15.30;99.90;;;;;;5109859;28;20457;-67
2021/06/06 05:43:01;;;;;;;12.10;10.27;;;15.30;99.90;;;;;;5110238;28;20528;-66
2021/06/06 05:45:30;;;;;;;11.63;10.43;;;15.30;99.90;;;;;;5110235;28;20441;-67
2021/06/06 05:47:56;;;;;;;13.97;9.90;;;15.40;99.90;;;;;;5110068;28;20448;-67
2021/06/06 05:50:24;;;;;;;15.17;10.43;;;15.40;99.90;;;;;;5109650;28;20461;-64
2021/06/06 05:52:51;;;;;;;11.77;9.13;;;15.40;99.90;;;;;;5110198;28;20451;-65
2021/06/06 05:55:19;;;;;;;13.30;9.00;;;15.40;99.90;;;;;;5110163;28;20504;-65
2021/06/06 05:57:45;;;;;;;15.10;10.67;;;15.40;99.90;;;;;;5110092;28;20456;-65
2021/06/06 06:00:15;;;;;;;12.43;9.70;;;15.40;99.90;;;;;;5109863;28;20822;-65
2021/06/06 06:02:42;;;;;;;13.97;10.50;;;15.40;99.90;;;;;;5113958;28;20938;-65
2021/06/06 06:05:10;;;;;;;15.70;9.30;;;15.40;99.90;;;;;;5114735;28;20443;-65
2021/06/06 06:07:36;;;;;;;14.80;11.10;;;15.40;99.90;;;;;;5114019;28;20563;-66
2021/06/06 06:10:06;;;;;;;12.50;9.67;;;15.40;99.90;;;;;;5113670;28;20539;-65
2021/06/06 06:12:32;;;;;;;16.27;10.60;;;15.40;99.90;;;;;;5113830;28;20472;-66
2021/06/06 06:14:58;;;;;;;11.50;9.20;;;15.40;99.90;;;;;;5113714;28;20477;-66
2021/06/06 06:17:25;;;;;;;15.57;11.33;;;15.40;99.90;;;;;;5113634;28;20472;-66
2021/06/06 06:19:52;;;;;;;14.53;11.77;;;15.40;99.90;;;;;;5113387;28;20529;-65
2021/06/06 06:22:19;;;;;;;15.60;10.03;;;15.40;99.90;;;;;;5113820;28;20514;-67
2021/06/06 06:24:45;;;;;;;15.83;10.77;;;15.40;99.90;;;;;;5113924;28;20464;-66
2021/06/06 06:27:11;;;;;;;11.47;9.60;;;15.50;99.90;;;;;;5114212;28;20457;-65
2021/06/06 06:29:38;;;;;;;14.57;9.87;;;15.50;99.90;;;;;;5114155;28;20524;-66
2021/06/06 06:32:05;;;;;;;14.00;10.30;;;15.50;99.90;;;;;;5113996;28;20447;-66
2021/06/06 06:34:32;;;;;;;13.03;10.60;;;15.40;99.90;;;;;;5113796;28;20465;-66
2021/06/06 06:37:00;;;;;;;9.83;8.67;;;15.50;99.90;;;;;;5114072;28;20448;-66
2021/06/06 06:39:26;;;;;;;12.07;9.70;;;15.40;99.90;;;;;;5114005;28;20476;-66
2021/06/06 06:41:53;;;;;;;18.23;11.50;;;15.40;99.90;;;;;;5113909;28;20501;-66
2021/06/06 06:44:19;;;;;;;15.07;10.33;;;15.40;99.90;;;;;;5114051;28;20461;-67
2021/06/06 06:46:46;;;;;;;13.47;11.80;;;15.40;99.90;;;;;;5114532;28;20480;-66
2021/06/06 06:49:12;;;;;;;18.63;13.70;;;15.40;99.90;;;;;;5113402;28;21021;-66
2021/06/06 06:51:38;;;;;;;12.27;10.10;;;15.40;99.90;;;;;;5113621;28;20864;-65
2021/06/06 06:54:06;;;;;;;11.67;10.20;;;15.40;99.90;;;;;;5113314;28;20453;-66
2021/06/06 06:56:32;;;;;;;15.00;11.70;;;15.40;99.90;;;;;;5113184;28;20830;-66
2021/06/06 06:59:00;;;;;;;10.73;9.63;;;15.40;99.90;;;;;;5112938;28;20854;-66
2021/06/06 07:01:27;;;;;;;12.13;10.37;;;15.50;99.90;;;;;;5112900;28;20967;-67
2021/06/06 07:03:54;;;;;;;14.23;11.37;;;15.50;99.90;;;;;;5113086;28;20469;-66
2021/06/06 07:06:20;;;;;;;11.63;9.17;;;15.50;99.90;;;;;;5112959;28;20442;-67
2021/06/06 07:08:47;;;;;;;11.53;10.33;;;15.50;99.90;;;;;;5112992;28;20441;-66
2021/06/06 07:11:17;;;;;;;11.27;8.90;;;15.60;99.90;;;;;;5112507;28;20498;-66
2021/06/06 07:13:44;;;;;;;11.70;10.10;;;15.60;99.90;;;;;;5111815;28;20504;-66
2021/06/06 07:16:12;;;;;;;13.90;11.13;;;15.60;99.90;;;;;;5112665;28;20564;-66
2021/06/06 07:18:39;;;;;;;12.63;11.33;;;15.60;99.90;;;;;;5112837;28;20449;-66
2021/06/06 07:21:12;;;;;;;13.70;10.27;;;15.60;99.90;;;;;;5112236;28;20877;-67
2021/06/06 07:23:38;;;;;;;12.03;9.50;;;15.60;99.90;;;;;;5112498;28;20548;-66
2021/06/06 07:26:11;;;;;;;12.57;10.20;;;15.70;99.90;;;;;;5112344;28;20536;-67
2021/06/06 07:28:39;;;;;;;13.43;10.77;;;15.70;99.90;;;;;;5112646;28;20514;-67
2021/06/06 07:31:06;;;;;;;12.87;10.47;;;15.70;99.90;;;;;;5112178;28;20449;-64
2021/06/06 07:33:41;;;;;;;12.40;10.87;;;15.70;99.90;;;;;;5112240;28;20462;-67
2021/06/06 07:36:09;;;;;;;13.40;10.77;;;15.80;99.90;;;;;;5112243;28;20575;-68
2021/06/06 07:38:36;;;;;;;12.63;9.43;;;15.70;99.90;;;;;;5112229;28;20471;-68
2021/06/06 07:41:03;;;;;;;13.33;10.80;;;15.80;99.90;;;;;;5112304;28;20542;-67
2021/06/06 07:43:29;;;;;;;12.60;9.77;;;15.80;99.90;;;;;;5111975;28;20472;-67
2021/06/06 07:45:57;;;;;;;15.10;10.63;;;15.90;99.90;;;;;;5112119;28;20471;-69
2021/06/06 07:48:24;;;;;;;14.10;11.10;;;15.90;99.90;;;;;;5111876;28;20967;-67
2021/06/06 07:50:52;;;;;;;13.50;10.10;;;15.90;99.90;;;;;;5111939;28;20875;-67
2021/06/06 07:53:20;;;;;;;18.13;11.97;;;16.00;99.90;;;;;;5111959;28;21029;-66
2021/06/06 07:55:46;;;;;;;14.67;10.53;;;16.00;99.90;;;;;;5112279;28;20513;-66
2021/06/06 07:58:18;;;;;;;17.00;12.63;;;16.00;99.90;;;;;;5111893;28;20536;-66
2021/06/06 08:00:44;;;;;;;17.50;12.47;;;15.90;99.90;;;;;;5111546;28;20528;-68
2021/06/06 08:03:12;;;;;;;17.57;12.87;;;15.90;99.90;;;;;;5111539;28;20465;-67
2021/06/06 08:05:40;;;;;;;18.23;13.83;;;15.80;99.90;;;;;;5111665;28;20480;-66
2021/06/06 08:08:08;;;;;;;18.53;12.50;;;15.80;99.90;;;;;;5112054;28;20903;-66
2021/06/06 08:10:37;;;;;;;16.40;12.50;;;15.80;99.90;;;;;;5111662;28;20448;-66
2021/06/06 08:13:04;;;;;;;19.67;12.57;;;15.80;99.90;;;;;;5111531;28;20472;-67
2021/06/06 08:15:31;;;;;;;17.63;13.10;;;15.80;99.90;;;;;;5111532;28;20568;-65
2021/06/06 08:17:59;;;;;;;15.03;13.13;;;15.80;99.90;;;;;;5105538;28;20441;-67
2021/06/06 08:20:29;;;;;;;16.20;12.87;;;15.80;99.90;;;;;;5099031;28;20448;-65
2021/06/06 08:22:56;;;;;;;17.03;13.27;;;15.90;99.90;;;;;;5092192;28;20510;-66
2021/06/06 08:25:24;;;;;;;19.33;14.87;;;16.00;99.90;;;;;;5093487;28;20879;-65
2021/06/06 08:27:51;;;;;;;20.23;13.67;;;16.00;99.90;;;;;;5092790;28;20538;-66
2021/06/06 08:30:24;;;;;;;20.03;15.27;;;16.00;99.90;;;;;;5091973;28;20451;-66
2021/06/06 08:32:50;;;;;;;18.60;13.73;;;16.00;99.90;;;;;;5092159;28;20529;-67
2021/06/06 08:35:17;;;;;;;17.00;12.83;;;16.10;99.90;;;;;;5092117;28;20531;-66
2021/06/06 08:37:45;;;;;;;21.57;14.67;;;16.10;99.90;;;;;;5091746;28;20472;-66
2021/06/06 08:40:15;;;;;;;19.00;13.50;;;16.20;99.90;;;;;;5091534;28;20498;-66
2021/06/06 08:42:44;;;;;;;16.43;12.63;;;16.20;99.90;;;;;;5091595;28;20525;-67
2021/06/06 08:45:19;;;;;;;18.90;13.90;;;16.20;99.90;;;;;;5097642;28;20511;-67
2021/06/06 08:47:46;;;;;;;16.87;13.20;;;16.20;99.90;;;;;;5093233;28;20438;-67
2021/06/06 08:50:15;;;;;;;17.40;15.40;;;16.30;99.90;;;;;;5090756;28;20477;-66
2021/06/06 08:52:49;;;;;;;19.10;16.17;;;16.30;99.90;;;;;;5090967;28;20442;-68
2021/06/06 08:55:32;;;;;;;19.37;15.80;;;16.30;99.90;;;;;;5090887;28;20570;-67
2021/06/06 08:58:06;;;;;;;19.20;15.63;;;16.20;99.90;;;;;;5093124;28;20442;-70
2021/06/06 09:00:35;;;;;;;19.60;15.67;;;16.20;99.90;;;;;;5098487;28;20452;-69
2021/06/06 09:03:05;;;;;;;20.37;14.80;;;16.20;99.90;;;;;;5100163;28;20442;-68
2021/06/06 09:05:36;;;;;;;21.87;15.60;;;16.20;99.90;;;;;;5104192;28;20520;-68
2021/06/06 09:08:06;;;;;;;20.50;16.07;;;16.20;99.90;;;;;;5094487;28;20586;-67
2021/06/06 09:10:34;;;;;;;21.47;14.73;;;16.20;99.90;;;;;;5099659;28;20446;-67
2021/06/06 09:13:03;;;;;;;21.50;15.77;;;16.30;99.90;;;;;;5098847;28;20449;-67
2021/06/06 09:15:29;;;;;;;22.53;16.50;;;16.30;99.90;;;;;;5098188;28;20545;-67
2021/06/06 09:17:58;;;;;;;21.27;15.10;;;16.30;99.90;;;;;;5098315;28;20446;-67
2021/06/06 09:20:31;;;;;;;16.27;12.93;;;16.40;99.90;;;;;;5099511;28;20433;-67
2021/06/06 09:23:09;;;;;;;17.53;14.07;;;16.40;99.90;;;;;;5100127;28;20518;-67
2021/06/06 09:25:37;;;;;;;18.73;16.17;;;16.60;99.90;;;;;;5102178;28;20962;-67
2021/06/06 09:28:06;;;;;;;21.60;17.20;;;16.70;99.90;;;;;;5100006;28;20453;-67
2021/06/06 09:30:34;;;;;;;22.80;16.83;;;16.70;99.90;;;;;;5101405;28;20988;-67
2021/06/06 09:33:07;;;;;;;22.20;17.20;;;16.70;99.90;;;;;;5100527;28;20544;-68
2021/06/06 09:35:36;;;;;;;22.67;17.10;;;16.70;99.90;;;;;;5102068;28;20492;-68
2021/06/06 09:38:18;;;;;;;25.17;19.07;;;16.80;99.90;;;;;;5102943;28;20479;-68
2021/06/06 09:40:47;;;;;;;23.83;18.40;;;16.80;99.90;;;;;;5101894;28;20450;-66
2021/06/06 09:43:25;;;;;;;27.93;20.87;;;16.90;99.90;;;;;;5097798;28;20548;-68
2021/06/06 09:46:03;;;;;;;28.40;21.33;;;16.90;99.90;;;;;;5102267;28;20938;-67
2021/06/06 09:48:32;;;;;;;31.40;21.60;;;16.90;99.90;;;;;;5100510;28;20452;-68
2021/06/06 09:51:11;;;;;;;29.33;24.43;;;16.80;99.90;;;;;;5100140;28;20450;-69
2021/06/06 09:53:41;;;;;;;33.80;25.40;;;16.90;99.90;;;;;;5102106;28;20457;-69
2021/06/06 09:56:10;;;;;;;33.90;28.80;;;17.00;99.90;;;;;;5102404;28;20549;-68
2021/06/06 09:58:40;;;;;;;38.77;29.40;;;17.10;99.90;;;;;;5097927;28;20477;-67
2021/06/06 10:01:22;;;;;;;32.13;25.17;;;17.30;99.90;;;;;;5101752;28;20446;-67
2021/06/06 10:03:54;;;;;;;46.97;30.77;;;17.40;99.90;;;;;;5107701;28;20466;-67
2021/06/06 10:06:27;;;;;;;36.63;28.87;;;17.30;99.90;;;;;;5103011;28;20474;-66
2021/06/06 10:09:06;;;;;;;41.13;30.80;;;17.30;99.90;;;;;;5106825;28;21023;-66
2021/06/06 10:11:40;;;;;;;39.63;31.70;;;17.20;99.90;;;;;;5097885;28;20969;-67
2021/06/06 10:14:08;;;;;;;39.00;29.60;;;17.10;99.90;;;;;;5107429;28;20625;-67
2021/06/06 10:16:39;;;;;;;42.43;30.33;;;17.10;99.90;;;;;;5106964;28;20516;-66
2021/06/06 10:19:13;;;;;;;37.57;31.17;;;17.00;99.90;;;;;;5106858;28;20452;-66
2021/06/06 10:21:40;;;;;;;41.13;32.50;;;17.10;99.90;;;;;;5100605;28;20445;-67
2021/06/06 10:24:12;;;;;;;38.77;29.97;;;17.00;99.90;;;;;;5100202;28;20924;-65
2021/06/06 10:26:44;;;;;;;38.87;31.50;;;17.00;99.90;;;;;;5096008;28;20633;-67
2021/06/06 10:29:24;;;;;;;41.40;30.53;;;17.00;99.90;;;;;;5099731;28;20583;-68
2021/06/06 10:31:55;;;;;;;41.70;32.10;;;17.00;99.90;;;;;;5093264;28;20491;-68
2021/06/06 10:34:30;;;;;;;46.27;33.40;;;17.00;99.90;;;;;;5104850;28;20488;-67
2021/06/06 10:36:56;;;;;;;41.80;31.57;;;17.00;99.90;;;;;;5097673;28;20513;-67
2021/06/06 10:39:27;;;;;;;42.20;33.63;;;17.10;99.90;;;;;;5097058;28;20499;-66
2021/06/06 10:41:58;;;;;;;44.13;35.20;;;17.20;99.90;;;;;;5107484;28;20429;-67
2021/06/06 10:44:28;;;;;;;46.10;35.30;;;17.40;99.90;;;;;;5109683;28;20895;-67
2021/06/06 10:46:58;;;;;;;45.10;35.73;;;17.40;99.90;;;;;;5110285;28;20437;-66
2021/06/06 10:49:29;;;;;;;44.40;35.80;;;17.40;99.90;;;;;;5111473;28;20452;-66
2021/06/06 10:51:59;;;;;;;41.80;32.77;;;17.30;99.90;;;;;;5095577;28;20445;-66
2021/06/06 10:54:35;;;;;;;47.23;37.37;;;17.20;99.90;;;;;;5091899;28;20462;-69
2021/06/06 10:57:04;;;;;;;54.03;36.23;;;17.10;99.90;;;;;;5101212;28;20514;-66
2021/06/06 10:59:38;;;;;;;50.87;36.83;;;17.10;99.90;;;;;;5096251;28;20513;-66
2021/06/06 11:02:06;;;;;;;53.27;38.83;;;17.10;99.90;;;;;;5099392;28;20448;-67
2021/06/06 11:04:46;;;;;;;56.90;42.60;;;17.00;99.90;;;;;;5093723;28;20458;-68
2021/06/06 11:07:40;;;;;;;61.03;43.03;;;17.00;99.90;;;;;;5092135;28;20444;-68
2021/06/06 11:10:28;;;;;;;67.37;45.73;;;17.10;99.90;;;;;;5090475;28;20521;-69
2021/06/06 11:12:57;;;;;;;71.20;46.27;;;17.10;99.90;;;;;;5099814;28;20950;-67
2021/06/06 11:15:33;;;;;;;70.47;48.97;;;17.10;99.90;;;;;;5093438;28;20564;-67
2021/06/06 11:18:09;;;;;;;65.60;45.37;;;17.20;99.90;;;;;;5092481;28;20868;-67
2021/06/06 11:20:49;;;;;;;66.00;46.87;;;17.20;99.90;;;;;;5092055;28;20494;-67
2021/06/06 11:23:20;;;;;;;75.90;49.70;;;17.10;99.90;;;;;;5092031;28;20542;-66
2021/06/06 11:25:49;;;;;;;70.50;47.93;;;17.00;99.90;;;;;;5092598;28;20533;-66
2021/06/06 11:28:33;;;;;;;69.90;48.07;;;17.00;99.90;;;;;;5092635;28;20454;-66
2021/06/06 11:31:01;;;;;;;73.77;47.20;;;16.90;99.90;;;;;;5092181;28;20438;-66
2021/06/06 11:33:37;;;;;;;63.20;45.50;;;16.90;99.90;;;;;;5100811;28;20886;-64
2021/06/06 11:36:05;;;;;;;68.00;45.37;;;17.10;99.90;;;;;;5102381;28;20492;-67
2021/06/06 11:38:36;;;;;;;59.70;43.67;;;17.10;99.90;;;;;;5102346;28;20687;-67
2021/06/06 11:41:28;;;;;;;62.73;45.90;;;17.10;99.90;;;;;;5089896;28;20454;-65
2021/06/06 11:44:00;;;;;;;65.27;45.57;;;17.10;99.90;;;;;;5090006;28;20983;-67
2021/06/06 11:46:32;;;;;;;68.20;47.10;;;17.00;99.90;;;;;;5090325;28;20449;-66
2021/06/06 11:49:21;;;;;;;63.00;44.63;;;17.00;99.90;;;;;;5090413;28;20982;-65
2021/06/06 11:51:50;;;;;;;65.07;43.80;;;16.90;99.90;;;;;;5091005;28;20442;-70
2021/06/06 11:54:29;;;;;;;55.00;40.80;;;17.00;99.90;;;;;;5090488;28;20484;-65
2021/06/06 11:57:01;;;;;;;55.67;39.87;;;17.00;99.90;;;;;;5090355;28;20474;-68
2021/06/06 11:59:35;;;;;;;54.87;41.13;;;17.10;99.90;;;;;;5093021;28;20931;-65
2021/06/06 12:02:10;;;;;;;52.30;38.17;;;17.20;99.90;;;;;;5093247;28;21000;-66
2021/06/06 12:04:38;;;;;;;48.23;35.73;;;17.20;99.90;;;;;;5090411;28;20545;-66
2021/06/06 12:07:12;;;;;;;49.87;38.60;;;17.30;99.90;;;;;;5091493;28;20442;-66
2021/06/06 12:09:41;;;;;;;50.47;39.07;;;17.30;99.90;;;;;;5090900;28;20979;-65
2021/06/06 12:12:13;;;;;;;55.70;39.70;;;17.30;99.90;;;;;;5091856;28;20442;-65
2021/06/06 12:14:40;;;;;;;48.30;37.07;;;17.20;99.90;;;;;;5093419;28;20515;-65
2021/06/06 12:17:20;;;;;;;55.17;40.47;;;17.20;99.90;;;;;;5091835;28;20999;-67
2021/06/06 12:19:51;;;;;;;57.33;42.87;;;17.00;99.90;;;;;;5090752;28;20441;-66
2021/06/06 12:22:26;;;;;;;44.93;36.30;;;17.10;99.90;;;;;;5091646;28;20522;-67
2021/06/06 12:25:09;;;;;;;54.60;39.30;;;17.10;99.90;;;;;;5092001;28;20485;-65
2021/06/06 12:27:43;;;;;;;47.17;36.53;;;17.20;99.90;;;;;;5090887;28;20833;-67
2021/06/06 12:30:18;;;;;;;54.73;40.47;;;17.30;99.90;;;;;;5090548;28;20546;-66
2021/06/06 12:32:53;;;;;;;50.63;39.17;;;17.50;99.90;;;;;;5090788;28;20446;-66
2021/06/06 12:35:24;;;;;;;47.40;38.40;;;17.50;99.90;;;;;;5090790;28;20648;-65
2021/06/06 12:38:01;;;;;;;49.73;40.43;;;17.60;99.90;;;;;;5093873;28;20460;-68
2021/06/06 12:40:30;;;;;;;45.43;36.70;;;17.70;99.90;;;;;;5101883;28;20516;-66
2021/06/06 12:43:00;;;;;;;46.30;36.80;;;17.80;99.90;;;;;;5094390;28;20439;-66